ADDS METAR Data INFO
IDs: Format: Raw Decoded Include TAF

Data at: 1408 UTC 24 Feb 2018

KOZW 241355Z AUTO 04004KT 10SM OVC110 01/M01 A3021 RMK AO2 T00131006
KOZW 241335Z AUTO 06004KT 10SM OVC110 01/00 A3021 RMK AO2 T00111005
KOZW 241315Z AUTO 00000KT 10SM OVC110 01/M01 A3022 RMK AO2 T00101007
KOZW 241255Z AUTO 00000KT 10SM OVC110 01/M01 A3023 RMK AO2 T00101007
KOZW 241235Z AUTO 00000KT 10SM OVC110 01/M01 A3021 RMK AO2 T00081009
KOZW 241215Z AUTO 00000KT 10SM OVC110 01/M01 A3022 RMK AO2 T00101010
KOZW 241155Z AUTO 00000KT 10SM OVC110 01/M01 A3021 RMK AO2 70002 T00111010 10025 20011
KOZW 241135Z AUTO 04003KT 10SM SCT020 OVC110 01/M01 A3021 RMK AO2 T00121009
KOZW 241115Z AUTO 00000KT 10SM OVC018 01/M01 A3022 RMK AO2 T00131008
KOZW 241055Z AUTO 03003KT 10SM OVC016 02/00 A3021 RMK AO2 T00151004
KOZW 241035Z AUTO 03003KT 10SM OVC016 02/00 A3023 RMK AO2 T00161002
KOZW 241015Z AUTO 00000KT 10SM OVC016 02/00 A3023 RMK AO2 T00161002
KOZW 240955Z AUTO 00000KT 10SM OVC018 02/00 A3023 RMK AO2 T00171002
KOZW 240935Z AUTO 00000KT 10SM OVC018 02/00 A3023 RMK AO2 T00171001
KOZW 240915Z AUTO 00000KT 10SM OVC018 02/00 A3022 RMK AO2 T00171002
KOZW 240855Z AUTO 35003KT 10SM OVC018 02/00 A3022 RMK AO2 T00171004
KOZW 240835Z AUTO 34003KT 10SM OVC018 02/00 A3022 RMK AO2 T00171005
KOZW 240815Z AUTO 35004KT 10SM OVC016 02/00 A3022 RMK AO2 T00181005
KOZW 240755Z AUTO 33004KT 10SM OVC016 02/00 A3023 RMK AO2 T00180000
KOZW 240735Z AUTO 32007KT 10SM OVC016 02/00 A3023 RMK AO2 T00201001
KOZW 240715Z AUTO 31007KT 10SM OVC016 02/00 A3025 RMK AO2 T00200000
KOZW 240655Z AUTO 32005KT 10SM OVC014 02/00 A3025 RMK AO2 T00210000
KOZW 240635Z AUTO 31009KT 10SM OVC014 02/00 A3024 RMK AO2 T00210002
KOZW 240615Z AUTO 32006KT 10SM OVC012 02/01 A3023 RMK AO2 T00220005
KOZW 240555Z AUTO 31006KT 10SM OVC010 03/01 A3023 RMK AO2 T00250013 10055 20025 400760000
KOZW 240535Z AUTO 29006KT 10SM OVC012 03/01 A3021 RMK AO2 T00250011
KOZW 240515Z AUTO 28008KT 10SM OVC012 03/01 A3022 RMK AO2 T00260011
KOZW 240455Z AUTO 29007KT 10SM OVC010 03/01 A3022 RMK AO2 T00260012
KOZW 240435Z AUTO 29008KT 10SM OVC010 03/02 A3021 RMK AO2 T00280015
KOZW 240415Z AUTO 28007KT 10SM OVC010 03/02 A3021 RMK AO2 T00300016
KOZW 240355Z AUTO 29006KT 10SM OVC010 03/02 A3021 RMK AO2 T00300017
KOZW 240335Z AUTO 29008KT 10SM OVC010 03/02 A3021 RMK AO2 T00300017
KOZW 240315Z AUTO 28011G16KT 10SM OVC012 03/02 A3021 RMK AO2 T00320017
KOZW 240255Z AUTO 27013G18KT 10SM OVC012 04/02 A3021 RMK AO2 T00350018
KOZW 240235Z AUTO 29010KT 10SM OVC012 04/02 A3020 RMK AO2 T00370020
KOZW 240215Z AUTO 28010KT 10SM OVC010 04/03 A3020 RMK AO2 T00400025
KOZW 240155Z AUTO 29009KT 10SM OVC010 04/03 A3019 RMK AO2 T00420031
KOZW 240135Z AUTO 27011KT 10SM OVC010 04/03 A3019 RMK AO2 T00430030
KOZW 240115Z AUTO 27012KT 10SM OVC010 05/03 A3019 RMK AO2 T00450032
KOZW 240055Z AUTO 27012G17KT 10SM OVC010 05/03 A3018 RMK AO2 T00460033
KOZW 240035Z AUTO 26010KT 10SM OVC010 05/04 A3018 RMK AO2 T00500038
KOZW 240015Z AUTO 27012G16KT 10SM OVC010 05/04 A3017 RMK AO2 T00510040
KOZW 232355Z AUTO 27013G20KT 10SM OVC010 06/04 A3017 RMK AO2 T00550042 10076 20055
KOZW 232335Z AUTO 26014KT 10SM OVC008 06/05 A3016 RMK AO2 T00580046
KOZW 232315Z AUTO 26010KT 10SM OVC008 06/05 A3015 RMK AO2 T00600050
KOZW 232255Z AUTO 26012G18KT 10SM OVC008 06/05 A3014 RMK AO2 T00620050
KOZW 232235Z AUTO 25012KT 10SM OVC008 06/05 A3013 RMK AO2 T00630053
KOZW 232215Z AUTO 25013G20KT 10SM OVC008 07/06 A3012 RMK AO2 T00650055
KOZW 232155Z AUTO 25010G16KT 10SM OVC006 07/06 A3011 RMK AO2 T00670060
KOZW 232135Z AUTO 26010KT 7SM OVC006 07/06 A3010 RMK AO2 T00670061
KOZW 232115Z AUTO 25011G18KT 7SM OVC006 07/06 A3010 RMK AO2 T00680061
KOZW 232055Z AUTO 26011G17KT 10SM OVC008 07/06 A3009 RMK AO2 T00700061
KOZW 232035Z AUTO 25010G20KT 10SM OVC008 07/06 A3009 RMK AO2 T00700061
KOZW 232015Z AUTO 25014KT 10SM OVC008 07/06 A3009 RMK AO2 T00710062
KOZW 231955Z AUTO 26014G21KT 10SM OVC008 07/06 A3008 RMK AO2 T00710062
KOZW 231935Z AUTO 27014G19KT 10SM OVC008 07/06 A3008 RMK AO2 T00730064
KOZW 231915Z AUTO 26016G20KT 10SM OVC006 08/07 A3007 RMK AO2 T00750067
KOZW 231855Z AUTO 25008KT 10SM OVC004 08/07 A3007 RMK AO2 T00750071
KOZW 231835Z AUTO 25010G16KT 5SM BR OVC004 07/07 A3007 RMK AO2 T00710069
KOZW 231815Z AUTO 24011G15KT 2 1/2SM BR OVC004 07/07 A3006 RMK AO2 T00700067
KOZW 231755Z AUTO 24011G14KT 2SM BR OVC004 07/07 A3007 RMK AO2 60002 T00690066 10069 20013
KOZW 231735Z AUTO 23006KT 2 1/2SM BR OVC004 07/07 A3007 RMK AO2 T00670066
KOZW 231715Z AUTO 22005KT 7SM OVC004 06/06 A3007 RMK AO2 T00600060
KOZW 231655Z AUTO 21005KT 1 1/2SM BR OVC004 05/05 A3007 RMK AO2 T00520051
KOZW 231635Z AUTO 19008KT 3SM BR OVC004 05/05 A3007 RMK AO2 T00510050
KOZW 231615Z AUTO 19006KT 10SM OVC004 05/05 A3008 RMK AO2 T00480047
KOZW 231556Z AUTO 18005KT 10SM OVC004 04/04 A3007 RMK AO2 T00430043
KOZW 231535Z AUTO 17008KT 5SM BR OVC004 04/04 A3008 RMK AO2 T00360036
KOZW 231515Z AUTO 17006KT 3SM -DZ OVC004 03/03 A3009 RMK AO2 T00320032
KOZW 231455Z AUTO 16006KT 2 1/2SM RA OVC002 03/03 A3009 RMK AO2 P0002 60002 T00310031
KOZW 231435Z AUTO 17005KT 1SM RA OVC002 03/03 A3011 RMK AO2 P0001 T00260026
KOZW 231415Z AUTO 15007KT 3/4SM -DZ OVC002 03/03 A3010 RMK AO2 T00250025
KOZW 231355Z AUTO 15006KT 1 1/4SM BR OVC002 02/02 A3011 RMK AO2 T00230023
KOZW 231335Z AUTO 15008KT 3SM BR OVC002 02/02 A3013 RMK AO2 T00210021
KOZW 231315Z AUTO 15009KT 3SM BR OVC002 02/02 A3013 RMK AO2 T00200020
KOZW 231255Z AUTO 15007KT 3/4SM BR OVC002 02/02 A3014 RMK AO2 T00170017
KOZW 231235Z AUTO 14011KT 3/4SM BR OVC002 02/02 A3014 RMK AO2 T00150015
KOZW 231215Z AUTO 14010KT 3/4SM BR OVC002 01/01 A3015 RMK AO2 T00140014
KOZW 231155Z AUTO 14010KT 1 1/4SM BR OVC002 01/01 A3017 RMK AO2 T00120012 10012 20000
KOZW 231135Z AUTO 14011G15KT 2SM BR OVC002 01/01 A3019 RMK AO2 T00100010
KOZW 231115Z AUTO 14008KT 2 1/2SM BR OVC002 01/01 A3022 RMK AO2 T00100010
KOZW 231055Z AUTO 15009KT 2 1/2SM BR OVC002 01/01 A3022 RMK AO2 T00100010
KOZW 231035Z AUTO 13009KT 2 1/2SM BR OVC002 01/01 A3022 RMK AO2 T00080008
KOZW 231015Z AUTO 12011KT 2 1/2SM BR OVC004 01/01 A3022 RMK AO2 T00070007
KOZW 230955Z AUTO 12012KT 3SM BR OVC004 01/01 A3025 RMK AO2 T00070007
KOZW 230935Z AUTO 11009KT 2 1/2SM BR OVC004 01/01 A3026 RMK AO2 T00070006
KOZW 230915Z AUTO 12011KT 3SM BR OVC004 01/01 A3027 RMK AO2 T00060005
KOZW 230855Z AUTO 12008KT 5SM BR OVC004 01/01 A3030 RMK AO2 T00060005
KOZW 230835Z AUTO 12006KT 5SM BR OVC006 01/00 A3032 RMK AO2 T00050002
KOZW 230815Z AUTO 13007KT 5SM BR OVC006 01/00 A3032 RMK AO2 T00050001
KOZW 230755Z AUTO 13008KT 5SM BR OVC006 00/00 A3033 RMK AO2 T00030000
KOZW 230735Z AUTO 13010G15KT 5SM BR OVC006 00/00 A3035 RMK AO2 T00030000
KOZW 230715Z AUTO 12008KT 5SM BR OVC006 00/00 A3036 RMK AO2 T00020000
KOZW 230655Z AUTO 12006KT 4SM BR OVC006 00/00 A3036 RMK AO2 T00000000
KOZW 230635Z AUTO 10007KT 3SM BR OVC006 00/00 A3037 RMK AO2 T00001002
KOZW 230615Z AUTO 09007KT 4SM BR OVC008 00/00 A3038 RMK AO2 T00001005
KOZW 230555Z AUTO 10006KT 5SM BR OVC010 00/M01 A3042 RMK AO2 T00001008 10026 20000 400501017
KOZW 230535Z AUTO 08006KT 10SM OVC012 00/M01 A3043 RMK AO2 T00021011
KOZW 230515Z AUTO 07005KT 10SM OVC012 00/M01 A3043 RMK AO2 T00021015
KOZW 230455Z AUTO 10008KT 10SM OVC014 00/M02 A3042 RMK AO2 T00031018
KOZW 230435Z AUTO 07009KT 10SM OVC016 00/M02 A3044 RMK AO2 T00031022
KOZW 230415Z AUTO 08005KT 10SM OVC016 01/M02 A3045 RMK AO2 T00051023
KOZW 230355Z AUTO 08006KT 10SM OVC018 01/M02 A3045 RMK AO2 T00051023
KOZW 230335Z AUTO 07008KT 10SM OVC018 01/M02 A3047 RMK AO2 T00061024
KOZW 230315Z AUTO 06006KT 10SM OVC020 01/M02 A3048 RMK AO2 T00071025
KOZW 230255Z AUTO 08008KT 10SM OVC020 01/M03 A3049 RMK AO2 T00081027
KOZW 230235Z AUTO 08006KT 10SM OVC024 01/M03 A3048 RMK AO2 T00081027
KOZW 230215Z AUTO 09006KT 10SM BKN024 01/M03 A3049 RMK AO2 T00081029